Badin Lake, North Carolina
Current Conditions -  °F | °C
As of 12:15 AM on Thursday 27 Nov 2014 (Local Time) from KVUJ Reporting Station
Broken Clouds Broken Clouds  
Wind Chill: 40°   Ceiling: 400
Heat Index: 40°   Visibility: 10mi
Dew Point: 40°   Wind: 3mph
Humidity: 100%   Direction: 170°S
Pressure: 30.07"   Gusts: NA
Location:  35.4384°N, 80.2063°W
Report Text: KVUJ 270515Z AUTO 17003KT 10SM BKN004 05/05 A3007 RMK AO2 T00460046
Loading
Personal Weather Stations






























Interactive Weather Map New forecast layout! Learn more

10-Day Weather Forecast

Advertisements
Track Severe Weather on mobile